createdAt,value
2022-08-22T00:01:36.785Z,16.48
2022-08-22T00:03:11.261Z,19.89
2022-08-22T00:04:12.094Z,16.46
2022-08-22T00:06:50.552Z,16.40
2022-08-22T00:09:29.530Z,16.36
2022-08-22T00:12:07.791Z,16.36
2022-08-22T00:14:41.304Z,16.28
2022-08-22T00:17:23.550Z,16.20
2022-08-22T00:20:01.810Z,16.18
2022-08-22T00:22:37.076Z,16.17
2022-08-22T00:25:25.545Z,16.17
2022-08-22T00:27:58.253Z,16.15
2022-08-22T00:30:27.612Z,16.20
2022-08-22T00:33:04.365Z,16.21
2022-08-22T00:35:39.557Z,16.18
2022-08-22T00:38:14.304Z,16.13
2022-08-22T00:40:57.320Z,16.10
2022-08-22T00:43:55.450Z,16.09
2022-08-22T00:46:42.743Z,16.10
2022-08-22T00:49:34.560Z,16.01
2022-08-22T00:52:47.042Z,15.95
2022-08-22T00:55:39.368Z,15.97
2022-08-22T00:58:39.706Z,15.95
2022-08-22T01:01:11.284Z,15.91
2022-08-22T01:03:59.254Z,15.87
2022-08-22T01:06:41.182Z,15.81
2022-08-22T01:09:22.799Z,15.80
2022-08-22T01:12:26.436Z,15.76
2022-08-22T01:14:57.191Z,15.56
2022-08-22T01:17:52.502Z,15.74
2022-08-22T01:20:53.466Z,15.66
2022-08-22T01:23:47.861Z,15.71
2022-08-22T01:27:03.623Z,15.67
2022-08-22T01:30:12.995Z,15.58
2022-08-22T01:33:14.562Z,15.49
2022-08-22T01:36:12.917Z,15.44
2022-08-22T01:39:10.998Z,15.39
2022-08-22T01:42:20.302Z,15.39
2022-08-22T01:45:20.080Z,15.32
2022-08-22T01:47:56.170Z,15.30
2022-08-22T01:50:37.952Z,15.22
2022-08-22T01:53:15.205Z,15.12
2022-08-22T01:55:53.483Z,15.12
2022-08-22T01:58:24.519Z,15.03
2022-08-22T02:01:17.626Z,15.00
2022-08-22T02:03:58.889Z,14.94
2022-08-22T02:06:37.025Z,14.87
2022-08-22T02:09:12.692Z,14.85
2022-08-22T02:11:47.559Z,14.84
2022-08-22T02:14:27.663Z,14.81
2022-08-22T02:16:59.357Z,14.85
2022-08-22T02:19:37.922Z,14.75
2022-08-22T02:22:19.216Z,14.66
2022-08-22T02:24:58.806Z,14.52
2022-08-22T02:27:37.045Z,14.49
2022-08-22T02:30:08.996Z,14.45
2022-08-22T02:32:50.605Z,14.42
2022-08-22T02:35:25.409Z,14.47
2022-08-22T02:38:05.424Z,14.45
2022-08-22T02:40:39.939Z,14.46
2022-08-22T02:43:18.477Z,14.43
2022-08-22T02:45:52.277Z,14.41
2022-08-22T02:48:34.774Z,14.40
2022-08-22T02:51:11.918Z,14.40
2022-08-22T02:53:49.405Z,14.36
2022-08-22T02:56:25.512Z,14.36
2022-08-22T02:58:59.133Z,14.32
2022-08-22T03:01:41.236Z,14.31
2022-08-22T03:04:44.057Z,14.35
2022-08-22T03:07:24.209Z,14.36
2022-08-22T03:10:00.615Z,14.29
2022-08-22T03:12:35.946Z,14.23
2022-08-22T03:15:14.452Z,14.14
2022-08-22T03:17:53.528Z,14.12
2022-08-22T03:20:40.593Z,14.12
2022-08-22T03:23:15.943Z,14.04
2022-08-22T03:25:52.226Z,13.94
2022-08-22T03:28:26.466Z,13.92
2022-08-22T03:31:00.516Z,13.93
2022-08-22T03:33:31.330Z,13.88
2022-08-22T03:36:06.552Z,13.89
2022-08-22T03:39:16.686Z,14.00
2022-08-22T03:42:17.895Z,14.10
2022-08-22T03:45:10.713Z,14.19
2022-08-22T03:48:20.434Z,14.20
2022-08-22T03:51:10.215Z,14.22
2022-08-22T03:54:20.609Z,14.14
2022-08-22T03:57:36.313Z,14.07
2022-08-22T04:00:20.674Z,13.96
2022-08-22T04:03:17.791Z,13.95
2022-08-22T04:06:24.907Z,14.02
2022-08-22T04:09:26.598Z,14.07
2022-08-22T04:12:21.035Z,14.10
2022-08-22T04:15:12.047Z,14.05
2022-08-22T04:18:16.195Z,13.98
2022-08-22T04:21:17.131Z,13.95
2022-08-22T04:24:14.737Z,13.93
2022-08-22T04:26:49.136Z,13.94
2022-08-22T04:29:23.250Z,13.79
2022-08-22T04:31:59.271Z,13.70
2022-08-22T04:34:36.150Z,13.62
2022-08-22T04:37:13.191Z,13.67
2022-08-22T04:39:49.989Z,13.67
2022-08-22T04:42:33.095Z,13.69
2022-08-22T04:45:06.835Z,13.71
2022-08-22T04:47:39.049Z,13.44
2022-08-22T04:50:15.654Z,13.68
2022-08-22T04:52:57.552Z,13.75
2022-08-22T04:55:36.451Z,13.82
2022-08-22T04:58:14.708Z,13.88
2022-08-22T05:01:01.689Z,13.99
2022-08-22T05:03:33.195Z,14.16
2022-08-22T05:06:06.118Z,14.28
2022-08-22T05:08:38.805Z,14.36
2022-08-22T05:11:11.449Z,14.44
2022-08-22T05:13:44.517Z,14.52
2022-08-22T05:16:15.784Z,14.63
2022-08-22T05:18:48.253Z,14.87
2022-08-22T05:21:22.636Z,15.02
2022-08-22T05:24:01.538Z,15.13
2022-08-22T05:26:34.738Z,15.29
2022-08-22T05:29:04.383Z,15.46
2022-08-22T05:31:36.609Z,15.53
2022-08-22T05:34:08.103Z,15.62
2022-08-22T05:36:41.849Z,15.75
2022-08-22T05:39:20.298Z,15.83
2022-08-22T05:41:50.969Z,16.04
2022-08-22T05:44:21.855Z,15.93
2022-08-22T05:46:56.058Z,16.25
2022-08-22T05:49:40.550Z,16.49
2022-08-22T05:52:17.911Z,16.61
2022-08-22T05:54:54.878Z,17.03
2022-08-22T05:57:30.015Z,17.31
2022-08-22T06:00:04.602Z,17.44
2022-08-22T06:02:54.459Z,17.65
2022-08-22T06:05:25.819Z,18.13
2022-08-22T06:08:04.287Z,18.88
2022-08-22T06:10:39.936Z,18.85
2022-08-22T06:13:12.793Z,19.52
2022-08-22T06:15:48.541Z,19.38
2022-08-22T06:18:20.846Z,18.87
2022-08-22T06:20:53.470Z,18.88
2022-08-22T06:23:27.660Z,18.86
2022-08-22T06:25:59.186Z,18.94
2022-08-22T06:28:32.784Z,19.06
2022-08-22T06:31:04.210Z,19.21
2022-08-22T06:33:35.154Z,19.37
2022-08-22T06:36:26.156Z,19.96
2022-08-22T06:39:04.123Z,19.79
2022-08-22T06:41:37.083Z,20.43
2022-08-22T06:44:06.873Z,21.37
2022-08-22T06:46:38.596Z,22.30
2022-08-22T06:49:09.176Z,23.16
2022-08-22T06:51:39.053Z,22.88
2022-08-22T06:54:16.212Z,21.59
2022-08-22T06:56:49.072Z,20.98
2022-08-22T06:59:20.809Z,20.60
2022-08-22T07:01:54.285Z,20.23
2022-08-22T07:04:26.526Z,20.24
2022-08-22T07:06:57.789Z,19.97
2022-08-22T07:09:31.922Z,19.96
2022-08-22T07:12:03.917Z,19.92
2022-08-22T07:14:39.835Z,19.98
2022-08-22T07:17:09.812Z,20.08
2022-08-22T07:19:41.471Z,19.96
2022-08-22T07:22:16.660Z,19.90
2022-08-22T07:24:52.117Z,20.14
2022-08-22T07:27:41.375Z,19.96
2022-08-22T07:30:13.085Z,20.15
2022-08-22T07:32:50.181Z,20.07
2022-08-22T07:35:22.418Z,20.18
2022-08-22T07:37:56.540Z,20.20
2022-08-22T07:40:32.486Z,20.44
2022-08-22T07:43:07.052Z,20.47
2022-08-22T07:45:44.411Z,20.43
2022-08-22T07:48:26.054Z,20.73
2022-08-22T07:51:15.448Z,20.77
2022-08-22T07:53:45.842Z,20.91
2022-08-22T07:56:22.021Z,21.10
2022-08-22T07:58:54.946Z,21.24
2022-08-22T08:01:25.454Z,21.44
2022-08-22T08:03:55.735Z,21.59
2022-08-22T08:06:26.057Z,21.64
2022-08-22T08:08:55.796Z,22.45
2022-08-22T08:11:28.412Z,22.21
2022-08-22T08:14:00.244Z,21.92
2022-08-22T08:16:34.402Z,22.03
2022-08-22T08:19:03.612Z,22.09
2022-08-22T08:21:37.234Z,22.24
2022-08-22T08:24:08.596Z,22.51
2022-08-22T08:27:03.371Z,22.72
2022-08-22T08:29:31.752Z,22.72
2022-08-22T08:32:01.432Z,22.75
2022-08-22T08:34:32.395Z,22.91
2022-08-22T08:37:07.360Z,23.05
2022-08-22T08:39:39.224Z,23.12
2022-08-22T08:42:58.603Z,23.29
2022-08-22T08:45:43.448Z,23.52
2022-08-22T08:48:40.019Z,23.47
2022-08-22T08:51:26.835Z,23.88
2022-08-22T08:54:22.555Z,24.07
2022-08-22T08:56:59.470Z,24.21
2022-08-22T08:59:44.362Z,23.98
2022-08-22T09:02:34.939Z,24.14
2022-08-22T09:05:27.021Z,24.29
2022-08-22T09:08:29.111Z,24.50
2022-08-22T09:11:12.002Z,25.24
2022-08-22T09:13:54.984Z,24.98
2022-08-22T09:16:38.839Z,25.16
2022-08-22T09:19:47.447Z,25.98
2022-08-22T09:22:50.017Z,28.02
2022-08-22T09:25:38.670Z,27.69
2022-08-22T09:28:17.740Z,27.55
2022-08-22T09:31:17.000Z,27.58
2022-08-22T09:33:59.663Z,28.10
2022-08-22T09:36:35.529Z,27.39
2022-08-22T09:39:11.641Z,26.73
2022-08-22T09:41:45.658Z,26.23
2022-08-22T09:44:31.733Z,26.31
2022-08-22T09:47:11.674Z,26.26
2022-08-22T09:49:50.143Z,26.13
2022-08-22T09:52:36.041Z,26.20
2022-08-22T09:55:13.409Z,26.30
2022-08-22T09:57:51.651Z,26.09
2022-08-22T10:00:26.034Z,26.18
2022-08-22T10:03:13.542Z,26.00
2022-08-22T10:05:48.227Z,26.22
2022-08-22T10:08:35.350Z,26.56
2022-08-22T10:11:24.141Z,26.59
2022-08-22T10:14:01.405Z,26.20
2022-08-22T10:16:55.609Z,26.56
2022-08-22T10:19:31.949Z,26.72
2022-08-22T10:22:21.980Z,26.78
2022-08-22T10:25:05.855Z,26.35
2022-08-22T10:27:52.545Z,26.48
2022-08-22T10:30:26.833Z,26.70
2022-08-22T10:33:05.719Z,26.33
2022-08-22T10:35:42.189Z,26.90
2022-08-22T10:38:18.414Z,27.23
2022-08-22T10:40:55.733Z,27.09
2022-08-22T10:43:34.346Z,26.82
2022-08-22T10:46:07.019Z,26.91
2022-08-22T10:48:48.466Z,27.30
2022-08-22T10:51:24.361Z,28.23
2022-08-22T10:54:14.666Z,28.13
2022-08-22T10:56:55.488Z,27.93
2022-08-22T10:59:42.485Z,27.55
2022-08-22T11:02:52.359Z,28.05
2022-08-22T11:05:42.737Z,28.38
2022-08-22T11:08:43.556Z,28.98
2022-08-22T11:11:21.603Z,28.91
2022-08-22T11:14:11.779Z,28.74
2022-08-22T11:16:55.370Z,28.85
2022-08-22T11:19:38.920Z,28.81
2022-08-22T11:22:23.823Z,28.74
2022-08-22T11:25:29.170Z,28.84
2022-08-22T11:28:25.449Z,29.16
2022-08-22T11:31:07.328Z,29.27
2022-08-22T11:33:47.283Z,29.14
2022-08-22T11:36:37.905Z,29.21
2022-08-22T11:39:18.425Z,29.22
2022-08-22T11:41:58.480Z,29.16
2022-08-22T11:44:34.355Z,29.13
2022-08-22T11:47:26.754Z,28.69
2022-08-22T11:50:01.383Z,28.91
2022-08-22T11:52:53.849Z,29.11
2022-08-22T11:55:33.028Z,29.40
2022-08-22T11:58:20.852Z,29.58
2022-08-22T12:00:56.526Z,29.78
2022-08-22T12:03:42.081Z,29.85
2022-08-22T12:06:39.317Z,29.58
2022-08-22T12:09:17.919Z,30.08
2022-08-22T12:11:59.932Z,30.45
2022-08-22T12:14:35.251Z,30.52
2022-08-22T12:17:50.592Z,29.67
2022-08-22T12:20:22.094Z,29.22
2022-08-22T12:23:08.458Z,28.73
2022-08-22T12:25:54.999Z,28.60
2022-08-22T12:28:33.659Z,28.29
2022-08-22T12:31:12.178Z,28.41
2022-08-22T12:34:03.718Z,29.96
2022-08-22T12:37:00.814Z,31.40
2022-08-22T12:39:42.676Z,32.24
2022-08-22T12:42:37.681Z,32.91
2022-08-22T12:45:37.488Z,33.63
2022-08-22T12:48:22.648Z,34.03
2022-08-22T12:50:59.677Z,34.72
2022-08-22T12:54:04.346Z,35.12
2022-08-22T12:56:42.344Z,34.32
2022-08-22T12:59:26.001Z,35.38
2022-08-22T13:01:56.839Z,35.30
2022-08-22T13:04:32.754Z,35.48
2022-08-22T13:07:23.197Z,35.65
2022-08-22T13:09:54.557Z,35.47
2022-08-22T13:12:28.570Z,36.33
2022-08-22T13:15:01.318Z,35.81
2022-08-22T13:17:32.024Z,35.94
2022-08-22T13:20:11.559Z,36.20
2022-08-22T13:22:45.257Z,34.93
2022-08-22T13:25:25.923Z,35.40
2022-08-22T13:28:03.417Z,35.90
2022-08-22T13:30:37.714Z,35.68
2022-08-22T13:33:10.223Z,36.22
2022-08-22T13:35:44.712Z,36.67
2022-08-22T13:38:25.704Z,35.99
2022-08-22T13:40:56.774Z,35.80
2022-08-22T13:43:29.735Z,36.55
2022-08-22T13:46:02.017Z,36.06
2022-08-22T13:48:47.512Z,35.28
2022-08-22T13:51:36.775Z,36.16
2022-08-22T13:54:39.011Z,35.50
2022-08-22T13:57:17.949Z,35.42
2022-08-22T13:59:52.675Z,35.42
2022-08-22T14:02:38.748Z,35.42
2022-08-22T14:05:17.325Z,34.97
2022-08-22T14:07:54.838Z,35.97
2022-08-22T14:10:33.192Z,35.32
2022-08-22T14:13:36.664Z,35.39
2022-08-22T14:16:10.405Z,35.25
2022-08-22T14:18:45.569Z,34.77
2022-08-22T14:21:33.490Z,33.95
2022-08-22T14:24:19.001Z,34.09
2022-08-22T14:26:59.355Z,34.21
2022-08-22T14:29:44.499Z,33.87
2022-08-22T14:32:35.523Z,33.92
2022-08-22T14:35:10.806Z,33.11
2022-08-22T14:37:54.228Z,32.99
2022-08-22T14:40:26.113Z,32.71
2022-08-22T14:43:06.137Z,32.94
2022-08-22T14:45:39.318Z,32.65
2022-08-22T14:48:29.762Z,32.05
2022-08-22T14:51:04.026Z,32.30
2022-08-22T14:53:34.566Z,32.08
2022-08-22T14:56:07.509Z,31.67
2022-08-22T14:58:46.611Z,31.76
2022-08-22T15:01:18.193Z,31.42
2022-08-22T15:03:53.731Z,31.08
2022-08-22T15:06:36.100Z,31.04
2022-08-22T15:09:08.448Z,30.59
2022-08-22T15:11:42.375Z,30.81
2022-08-22T15:14:25.010Z,29.77
2022-08-22T15:16:57.141Z,29.99
2022-08-22T15:19:28.519Z,29.93
2022-08-22T15:22:11.266Z,29.76
2022-08-22T15:24:43.115Z,29.56
2022-08-22T15:27:12.447Z,29.45
2022-08-22T15:29:51.333Z,29.32
2022-08-22T15:32:22.949Z,29.67
2022-08-22T15:35:05.359Z,30.13
2022-08-22T15:37:35.349Z,30.24
2022-08-22T15:40:15.246Z,30.31
2022-08-22T15:42:46.636Z,30.59
2022-08-22T15:45:31.069Z,30.10
2022-08-22T15:48:05.532Z,30.32
2022-08-22T15:50:37.909Z,30.17
2022-08-22T15:53:16.009Z,29.76
2022-08-22T15:56:19.640Z,29.51
2022-08-22T15:58:52.642Z,28.90
2022-08-22T16:01:25.369Z,29.11
2022-08-22T16:03:59.393Z,29.35
2022-08-22T16:06:46.527Z,29.22
2022-08-22T16:09:35.817Z,28.90
2022-08-22T16:12:09.992Z,28.74
2022-08-22T16:14:51.190Z,28.47
2022-08-22T16:17:53.506Z,28.38
2022-08-22T16:20:56.982Z,28.31
2022-08-22T16:23:26.035Z,28.54
2022-08-22T16:26:12.172Z,28.72
2022-08-22T16:28:58.213Z,28.75
2022-08-22T16:31:31.858Z,28.72
2022-08-22T16:34:22.974Z,28.36
2022-08-22T16:36:55.539Z,28.38
2022-08-22T16:39:37.179Z,28.36
2022-08-22T16:42:29.041Z,28.30
2022-08-22T16:45:11.696Z,28.06
2022-08-22T16:47:54.570Z,27.83
2022-08-22T16:50:33.828Z,27.78
2022-08-22T16:53:11.449Z,27.71
2022-08-22T16:55:49.392Z,27.43
2022-08-22T16:58:58.897Z,27.41
2022-08-22T17:01:48.882Z,27.26
2022-08-22T17:04:25.499Z,27.40
2022-08-22T17:07:18.210Z,27.29
2022-08-22T17:10:11.627Z,27.16
2022-08-22T17:12:54.825Z,26.89
2022-08-22T17:15:36.036Z,26.92
2022-08-22T17:18:25.510Z,26.80
2022-08-22T17:21:07.046Z,26.73
2022-08-22T17:23:45.400Z,26.58
2022-08-22T17:26:21.049Z,26.48
2022-08-22T17:29:04.130Z,26.37
2022-08-22T17:31:37.735Z,26.25
2022-08-22T17:34:33.716Z,26.17
2022-08-22T17:37:10.123Z,26.05
2022-08-22T17:40:11.020Z,25.91
2022-08-22T17:42:52.673Z,25.80
2022-08-22T17:45:28.375Z,25.68
2022-08-22T17:48:06.447Z,25.53
2022-08-22T17:50:42.169Z,25.41
2022-08-22T17:53:16.745Z,25.26
2022-08-22T17:56:01.499Z,25.20
2022-08-22T18:44:35.370Z,23.56
2022-08-22T18:47:13.354Z,23.47
2022-08-22T18:49:46.372Z,23.37
2022-08-22T18:52:19.973Z,23.27
2022-08-22T18:55:07.252Z,23.16
2022-08-22T18:57:54.195Z,23.04
2022-08-22T19:00:25.251Z,22.99
2022-08-22T19:03:13.611Z,22.92
2022-08-22T19:06:08.977Z,22.88
2022-08-22T19:09:07.610Z,22.81
2022-08-22T19:11:47.959Z,22.76
2022-08-22T19:14:53.178Z,22.68
2022-08-22T19:17:57.717Z,22.62
2022-08-22T19:20:49.757Z,22.59
2022-08-22T19:23:48.936Z,22.59
2022-08-22T19:26:30.460Z,22.59
2022-08-22T19:29:01.084Z,22.57
2022-08-22T19:31:48.967Z,22.53
2022-08-22T19:34:46.992Z,22.50
2022-08-22T19:37:33.126Z,22.48
2022-08-22T19:40:05.209Z,22.43
2022-08-22T19:42:38.038Z,22.39
2022-08-22T19:45:18.152Z,22.36
2022-08-22T19:47:55.966Z,22.29
2022-08-22T19:50:32.751Z,22.24
2022-08-22T19:53:18.411Z,22.19
2022-08-22T19:55:58.898Z,22.13
2022-08-22T19:58:39.508Z,22.09
2022-08-22T20:01:29.762Z,22.05
2022-08-22T20:04:03.722Z,22.02
2022-08-22T20:06:45.187Z,22.02
2022-08-22T20:09:27.608Z,22.02
2022-08-22T20:12:05.066Z,21.98
2022-08-22T20:14:36.009Z,21.97
2022-08-22T20:17:12.175Z,21.92
2022-08-22T20:20:16.385Z,21.86
2022-08-22T20:22:37.072Z,21.84
2022-08-22T20:25:42.658Z,21.79
2022-08-22T20:28:09.587Z,21.77
2022-08-22T20:30:42.038Z,21.76
2022-08-22T20:33:14.666Z,21.72
2022-08-22T20:35:48.437Z,21.73
2022-08-22T20:38:21.450Z,21.65
2022-08-22T20:40:57.171Z,21.62
2022-08-22T20:43:34.306Z,21.53
2022-08-22T20:46:21.745Z,21.52
2022-08-22T20:48:55.542Z,21.47
2022-08-22T20:51:26.096Z,21.40
2022-08-22T20:53:56.174Z,21.39
2022-08-22T20:56:35.233Z,21.34
2022-08-22T20:59:16.715Z,21.29
2022-08-22T21:01:46.580Z,21.23
2022-08-22T21:04:19.716Z,21.17
2022-08-22T21:06:48.085Z,21.13
2022-08-22T21:09:37.721Z,21.06
2022-08-22T21:12:09.418Z,20.98
2022-08-22T21:14:44.463Z,21.01
2022-08-22T21:17:26.384Z,20.95
2022-08-22T21:19:57.681Z,20.91
2022-08-22T21:22:28.327Z,20.86
2022-08-22T21:24:58.220Z,20.84
2022-08-22T21:27:30.554Z,20.83
2022-08-22T21:29:59.923Z,20.75
2022-08-22T21:32:35.044Z,20.77
2022-08-22T21:35:05.030Z,20.72
2022-08-22T21:37:39.714Z,20.69
2022-08-22T21:40:15.352Z,20.70
2022-08-22T21:42:58.890Z,20.68
2022-08-22T21:45:29.953Z,20.63
2022-08-22T21:47:58.491Z,20.60
2022-08-22T21:50:34.564Z,20.60
2022-08-22T21:53:10.299Z,20.59
2022-08-22T21:55:42.893Z,20.58
2022-08-22T22:01:28.994Z,20.58
2022-08-22T22:03:58.721Z,20.58
2022-08-22T22:06:30.029Z,20.53
2022-08-22T22:08:58.134Z,20.57
2022-08-22T22:11:26.411Z,20.57
2022-08-22T22:13:54.827Z,20.52
2022-08-22T22:16:27.903Z,20.53
2022-08-22T22:18:57.180Z,20.50
2022-08-22T22:21:25.214Z,20.47
2022-08-22T22:23:53.658Z,20.43
2022-08-22T22:26:26.871Z,20.42
2022-08-22T22:28:54.915Z,20.37
2022-08-22T22:31:23.111Z,20.35
2022-08-22T22:33:51.243Z,20.33
2022-08-22T22:36:24.781Z,20.33
2022-08-22T22:38:53.780Z,20.31
2022-08-22T22:41:25.506Z,20.31
2022-08-22T22:43:54.000Z,19.71
2022-08-22T22:46:22.752Z,20.28
2022-08-22T22:48:50.827Z,20.29
2022-08-22T22:51:18.878Z,20.28
2022-08-22T22:53:48.868Z,20.26
2022-08-22T22:56:22.319Z,20.25
2022-08-22T22:58:50.723Z,20.22
2022-08-22T23:01:29.545Z,20.22
2022-08-22T23:03:59.478Z,20.20
2022-08-22T23:06:34.502Z,20.10
2022-08-22T23:09:04.359Z,20.15
2022-08-22T23:11:32.535Z,20.15
2022-08-22T23:14:02.295Z,19.95
2022-08-22T23:16:35.155Z,20.13
2022-08-22T23:19:08.968Z,20.13
2022-08-22T23:21:36.944Z,20.11
2022-08-22T23:24:08.710Z,20.12
2022-08-22T23:26:37.443Z,20.12
2022-08-22T23:29:06.147Z,20.08
2022-08-22T23:31:36.939Z,20.09
2022-08-22T23:34:07.647Z,20.01
2022-08-22T23:36:36.314Z,20.05
2022-08-22T23:39:07.445Z,19.89
2022-08-22T23:41:36.697Z,20.03
2022-08-22T23:44:06.548Z,20.01
2022-08-22T23:46:37.732Z,20.00
2022-08-22T23:49:06.488Z,20.01
2022-08-22T23:51:35.065Z,20.00
2022-08-22T23:54:04.547Z,19.98
2022-08-22T23:56:37.265Z,19.91
2022-08-22T23:59:07.861Z,19.94
